Time,TemperatureF,DewpointF,PressureIn,WindDirection,WindDirectionDegrees,WindSpeedMPH,WindSpeedGustMPH,Humidity,HourlyPrecipIn,Conditions,Clouds,dailyrainin,SoftwareType,DateUTC
2013-09-17 00:01:00,39.2,36.0,29.85,WNW,292,0.0,1.0,87,0.00,,,0.00,Rainwise IP-100,2013-09-17 04:01:00,
2013-09-17 00:02:00,39.3,36.0,29.85,WNW,292,0.0,1.0,87,0.00,,,0.00,Rainwise IP-100,2013-09-17 04:02:00,
2013-09-17 00:03:00,39.3,36.0,29.85,WNW,292,0.0,1.0,87,0.00,,,0.00,Rainwise IP-100,2013-09-17 04:03:00,
2013-09-17 00:08:00,39.2,36.0,29.85,WNW,292,0.0,0.0,87,0.00,,,0.00,Rainwise IP-100,2013-09-17 04:08:00,
2013-09-17 00:13:00,39.1,36.0,29.85,WNW,292,0.0,0.0,88,0.00,,,0.00,Rainwise IP-100,2013-09-17 04:13:00,
2013-09-17 00:19:00,39.2,36.0,29.86,WNW,292,1.2,1.2,89,0.00,,,0.00,Rainwise IP-100,2013-09-17 04:19:00,
2013-09-17 00:24:00,39.0,37.0,29.85,WNW,292,0.0,1.0,90,0.00,,,0.00,Rainwise IP-100,2013-09-17 04:24:00,
2013-09-17 00:29:00,38.8,37.0,29.86,WNW,292,1.6,0.0,90,0.00,,,0.00,Rainwise IP-100,2013-09-17 04:29:00,
2013-09-17 00:34:00,38.7,37.0,29.86,WNW,292,0.0,1.0,91,0.00,,,0.00,Rainwise IP-100,2013-09-17 04:34:00,
2013-09-17 00:39:00,38.5,37.0,29.86,WNW,292,0.0,0.0,91,0.00,,,0.00,Rainwise IP-100,2013-09-17 04:39:00,
2013-09-17 00:44:00,38.4,36.0,29.86,WNW,292,1.4,1.4,91,0.00,,,0.00,Rainwise IP-100,2013-09-17 04:44:00,
2013-09-17 00:49:00,38.3,36.0,29.87,WNW,292,0.0,1.0,92,0.00,,,0.00,Rainwise IP-100,2013-09-17 04:49:00,
2013-09-17 00:54:00,38.1,36.0,29.87,WNW,292,0.0,1.0,92,0.00,,,0.00,Rainwise IP-100,2013-09-17 04:54:00,
2013-09-17 00:59:00,38.0,36.0,29.87,WNW,292,0.0,0.0,93,0.00,,,0.00,Rainwise IP-100,2013-09-17 04:59:00,
2013-09-17 01:04:00,37.8,36.0,29.87,WNW,292,0.0,0.0,93,0.00,,,0.00,Rainwise IP-100,2013-09-17 05:04:00,
2013-09-17 01:09:00,37.5,36.0,29.87,WNW,292,0.0,0.0,93,0.00,,,0.00,Rainwise IP-100,2013-09-17 05:09:00,
2013-09-17 01:14:00,37.1,35.0,29.87,WNW,292,0.0,0.0,93,0.00,,,0.00,Rainwise IP-100,2013-09-17 05:14:00,
2013-09-17 01:19:00,36.8,35.0,29.87,WNW,292,0.0,0.0,93,0.00,,,0.00,Rainwise IP-100,2013-09-17 05:19:00,
2013-09-17 01:24:00,36.6,36.0,29.87,WNW,292,0.0,1.0,94,0.00,,,0.00,Rainwise IP-100,2013-09-17 05:24:00,
2013-09-17 01:29:00,36.6,36.0,29.87,WNW,292,0.0,1.0,94,0.00,,,0.00,Rainwise IP-100,2013-09-17 05:29:00,
2013-09-17 01:35:00,36.9,36.0,29.88,WNW,292,0.0,1.0,95,0.00,,,0.00,Rainwise IP-100,2013-09-17 05:35:00,
2013-09-17 01:40:00,37.0,36.0,29.88,WNW,292,0.0,0.0,95,0.00,,,0.00,Rainwise IP-100,2013-09-17 05:40:00,
2013-09-17 01:45:00,36.9,36.0,29.88,WNW,292,1.4,0.0,95,0.00,,,0.00,Rainwise IP-100,2013-09-17 05:45:00,
2013-09-17 01:50:00,36.9,36.0,29.88,WNW,292,0.0,1.0,95,0.00,,,0.00,Rainwise IP-100,2013-09-17 05:50:00,
2013-09-17 01:55:00,36.7,36.0,29.88,WNW,292,0.0,0.0,95,0.00,,,0.00,Rainwise IP-100,2013-09-17 05:55:00,
2013-09-17 02:00:00,36.5,36.0,29.88,WNW,292,0.0,1.0,95,0.00,,,0.00,Rainwise IP-100,2013-09-17 06:00:00,
2013-09-17 02:05:00,36.5,36.0,29.88,WNW,292,0.0,0.0,95,0.00,,,0.00,Rainwise IP-100,2013-09-17 06:05:00,
2013-09-17 02:10:00,36.5,36.0,29.88,WNW,292,1.2,1.2,96,0.00,,,0.00,Rainwise IP-100,2013-09-17 06:10:00,
2013-09-17 02:15:00,36.4,35.0,29.88,WNW,292,0.0,0.0,96,0.00,,,0.00,Rainwise IP-100,2013-09-17 06:15:00,
2013-09-17 02:20:00,36.1,35.0,29.88,WNW,292,0.0,0.0,95,0.00,,,0.00,Rainwise IP-100,2013-09-17 06:20:00,
2013-09-17 02:25:00,35.8,35.0,29.88,North,360,2.8,2.8,95,0.00,,,0.00,Rainwise IP-100,2013-09-17 06:25:00,
2013-09-17 02:30:00,35.6,35.0,29.88,North,360,2.1,2.1,96,0.00,,,0.00,Rainwise IP-100,2013-09-17 06:30:00,
2013-09-17 02:35:00,35.4,33.0,29.88,North,360,0.0,2.0,96,0.00,,,0.00,Rainwise IP-100,2013-09-17 06:35:00,
2013-09-17 02:41:00,35.4,33.0,29.88,North,360,0.0,0.0,96,0.00,,,0.00,Rainwise IP-100,2013-09-17 06:41:00,
2013-09-17 02:46:00,35.3,33.0,29.88,North,360,0.0,1.0,96,0.00,,,0.00,Rainwise IP-100,2013-09-17 06:46:00,
2013-09-17 02:51:00,35.4,33.0,29.89,NW,315,0.0,3.0,96,0.00,,,0.00,Rainwise IP-100,2013-09-17 06:51:00,
2013-09-17 02:56:00,35.5,35.0,29.88,NW,315,0.0,0.0,96,0.00,,,0.00,Rainwise IP-100,2013-09-17 06:56:00,
2013-09-17 03:01:00,35.8,35.0,29.88,WNW,292,0.0,1.0,96,0.00,,,0.00,Rainwise IP-100,2013-09-17 07:01:00,
2013-09-17 03:06:00,36.2,35.0,29.89,WNW,292,2.1,2.1,96,0.00,,,0.00,Rainwise IP-100,2013-09-17 07:06:00,
2013-09-17 03:11:00,36.3,35.0,29.89,WNW,292,0.0,2.0,95,0.00,,,0.00,Rainwise IP-100,2013-09-17 07:11:00,
2013-09-17 03:16:00,36.3,35.0,29.89,North,360,1.6,3.0,95,0.00,,,0.00,Rainwise IP-100,2013-09-17 07:16:00,
2013-09-17 03:21:00,35.9,35.0,29.89,NNW,337,0.0,1.0,95,0.00,,,0.00,Rainwise IP-100,2013-09-17 07:21:00,
2013-09-17 03:27:00,35.6,35.0,29.89,NNW,337,0.0,2.0,95,0.00,,,0.00,Rainwise IP-100,2013-09-17 07:27:00,
2013-09-17 03:32:00,35.6,35.0,29.90,NNW,337,1.2,2.0,95,0.00,,,0.00,Rainwise IP-100,2013-09-17 07:32:00,
2013-09-17 03:37:00,35.4,33.0,29.90,NNW,337,2.1,3.0,95,0.00,,,0.00,Rainwise IP-100,2013-09-17 07:37:00,
2013-09-17 03:42:00,35.1,33.0,29.89,NNW,337,2.1,4.0,95,0.00,,,0.00,Rainwise IP-100,2013-09-17 07:42:00,
2013-09-17 03:47:00,35.0,33.0,29.89,WNW,292,1.2,2.0,96,0.00,,,0.00,Rainwise IP-100,2013-09-17 07:47:00,
2013-09-17 03:52:00,35.2,33.0,29.90,WNW,292,1.2,1.2,96,0.00,,,0.00,Rainwise IP-100,2013-09-17 07:52:00,
2013-09-17 03:57:00,35.4,33.0,29.90,WNW,292,1.4,2.0,96,0.00,,,0.00,Rainwise IP-100,2013-09-17 07:57:00,
2013-09-17 04:02:00,35.6,35.0,29.90,WNW,292,0.0,1.0,96,0.00,,,0.00,Rainwise IP-100,2013-09-17 08:02:00,
2013-09-17 04:07:00,35.6,35.0,29.90,WNW,292,0.0,0.0,95,0.00,,,0.00,Rainwise IP-100,2013-09-17 08:07:00,
2013-09-17 04:13:00,35.1,33.0,29.90,WNW,292,0.0,0.0,95,0.00,,,0.00,Rainwise IP-100,2013-09-17 08:13:00,
2013-09-17 04:18:00,34.5,33.0,29.90,NNW,337,2.3,2.3,95,0.00,,,0.00,Rainwise IP-100,2013-09-17 08:18:00,
2013-09-17 04:23:00,34.4,33.0,29.90,NNW,337,4.7,4.7,97,0.00,,,0.00,Rainwise IP-100,2013-09-17 08:23:00,
2013-09-17 04:28:00,34.6,33.0,29.90,NNW,337,1.4,4.0,97,0.00,,,0.00,Rainwise IP-100,2013-09-17 08:28:00,
2013-09-17 04:33:00,34.7,35.0,29.90,NNW,337,0.0,2.0,98,0.00,,,0.00,Rainwise IP-100,2013-09-17 08:33:00,
2013-09-17 04:38:00,35.1,35.0,29.90,NNW,337,0.0,0.0,98,0.00,,,0.00,Rainwise IP-100,2013-09-17 08:38:00,
2013-09-17 04:43:00,35.2,35.0,29.91,NW,315,0.0,1.0,98,0.00,,,0.00,Rainwise IP-100,2013-09-17 08:43:00,
2013-09-17 04:48:00,35.3,35.0,29.91,WNW,292,0.0,1.0,98,0.00,,,0.00,Rainwise IP-100,2013-09-17 08:48:00,
2013-09-17 04:53:00,35.3,33.0,29.91,WNW,292,0.0,1.0,97,0.00,,,0.00,Rainwise IP-100,2013-09-17 08:53:00,
2013-09-17 04:58:00,35.2,33.0,29.91,WNW,292,0.0,1.0,97,0.00,,,0.00,Rainwise IP-100,2013-09-17 08:58:00,
2013-09-17 05:03:00,35.3,33.0,29.91,WNW,292,0.0,0.0,97,0.00,,,0.00,Rainwise IP-100,2013-09-17 09:03:00,
2013-09-17 05:08:00,35.0,33.0,29.91,NNW,337,3.3,4.0,97,0.00,,,0.00,Rainwise IP-100,2013-09-17 09:08:00,
2013-09-17 05:13:00,34.6,33.0,29.91,NW,315,3.3,4.0,96,0.00,,,0.00,Rainwise IP-100,2013-09-17 09:13:00,
2013-09-17 05:19:00,34.3,33.0,29.92,WNW,292,1.9,3.0,96,0.00,,,0.00,Rainwise IP-100,2013-09-17 09:19:00,
2013-09-17 05:24:00,34.2,33.0,29.91,NNW,337,0.0,3.0,97,0.00,,,0.00,Rainwise IP-100,2013-09-17 09:24:00,
2013-09-17 05:29:00,34.1,33.0,29.92,NNW,337,0.0,1.0,97,0.00,,,0.00,Rainwise IP-100,2013-09-17 09:29:00,
2013-09-17 05:34:00,34.0,33.0,29.92,NNW,337,0.0,0.0,97,0.00,,,0.00,Rainwise IP-100,2013-09-17 09:34:00,
2013-09-17 05:39:00,33.9,33.0,29.92,NNW,337,0.0,1.0,97,0.00,,,0.00,Rainwise IP-100,2013-09-17 09:39:00,
2013-09-17 05:44:00,33.9,33.0,29.93,NNW,337,0.0,1.0,97,0.00,,,0.00,Rainwise IP-100,2013-09-17 09:44:00,
2013-09-17 05:49:00,33.9,33.0,29.93,NNW,337,0.0,0.0,97,0.00,,,0.00,Rainwise IP-100,2013-09-17 09:49:00,
2013-09-17 05:54:00,33.9,33.0,29.93,NNW,337,0.0,2.0,97,0.00,,,0.00,Rainwise IP-100,2013-09-17 09:54:00,
2013-09-17 05:59:00,33.9,33.0,29.93,NNW,337,1.9,1.9,97,0.00,,,0.00,Rainwise IP-100,2013-09-17 09:59:00,
2013-09-17 06:04:00,33.9,35.0,29.94,WNW,292,1.6,2.0,98,0.00,,,0.00,Rainwise IP-100,2013-09-17 10:04:00,
2013-09-17 06:09:00,34.0,33.0,29.94,WNW,292,1.2,3.0,97,0.00,,,0.00,Rainwise IP-100,2013-09-17 10:09:00,
2013-09-17 06:14:00,33.9,33.0,29.94,NNW,337,2.3,3.0,97,0.00,,,0.00,Rainwise IP-100,2013-09-17 10:14:00,
2013-09-17 06:19:00,33.9,33.0,29.94,NNW,337,1.2,3.0,97,0.00,,,0.00,Rainwise IP-100,2013-09-17 10:19:00,
2013-09-17 06:24:00,34.0,35.0,29.95,NNW,337,0.0,1.0,98,0.00,,,0.00,Rainwise IP-100,2013-09-17 10:24:00,
2013-09-17 06:29:00,34.1,35.0,29.95,NNW,337,0.0,0.0,98,0.00,,,0.00,Rainwise IP-100,2013-09-17 10:29:00,
2013-09-17 06:35:00,34.2,35.0,29.95,WSW,247,0.0,0.0,98,0.00,,,0.00,Rainwise IP-100,2013-09-17 10:35:00,
2013-09-17 06:40:00,34.4,35.0,29.95,WSW,247,1.4,1.4,98,0.00,,,0.00,Rainwise IP-100,2013-09-17 10:40:00,
2013-09-17 06:45:00,34.5,35.0,29.96,WSW,247,0.0,2.0,98,0.00,,,0.00,Rainwise IP-100,2013-09-17 10:45:00,
2013-09-17 06:50:00,34.6,35.0,29.95,WSW,247,0.0,0.0,98,0.00,,,0.00,Rainwise IP-100,2013-09-17 10:50:00,
2013-09-17 06:55:00,34.6,35.0,29.96,NNW,337,0.0,2.0,99,0.00,,,0.00,Rainwise IP-100,2013-09-17 10:55:00,
2013-09-17 07:00:00,34.6,35.0,29.96,NNW,337,1.2,1.2,99,0.00,,,0.00,Rainwise IP-100,2013-09-17 11:00:00,
2013-09-17 07:05:00,34.7,35.0,29.96,NNW,337,0.0,2.0,99,0.00,,,0.00,Rainwise IP-100,2013-09-17 11:05:00,
2013-09-17 07:10:00,34.7,35.0,29.96,NNW,337,0.0,1.0,99,0.00,,,0.00,Rainwise IP-100,2013-09-17 11:10:00,
2013-09-17 07:15:00,34.8,35.0,29.97,North,360,0.0,1.0,99,0.00,,,0.00,Rainwise IP-100,2013-09-17 11:15:00,
2013-09-17 07:20:00,35.1,35.0,29.97,North,360,0.0,1.0,99,0.00,,,0.00,Rainwise IP-100,2013-09-17 11:20:00,
2013-09-17 07:25:00,35.3,35.0,29.97,North,360,1.2,2.0,99,0.00,,,0.00,Rainwise IP-100,2013-09-17 11:25:00,
2013-09-17 07:30:00,35.4,35.0,29.97,North,360,1.4,2.0,99,0.00,,,0.00,Rainwise IP-100,2013-09-17 11:30:00,
2013-09-17 07:35:00,35.5,36.0,29.97,North,360,2.3,3.0,99,0.00,,,0.00,Rainwise IP-100,2013-09-17 11:35:00,
2013-09-17 07:40:00,35.5,36.0,29.97,North,360,2.3,2.3,99,0.00,,,0.00,Rainwise IP-100,2013-09-17 11:40:00,
2013-09-17 07:46:00,35.6,36.0,29.98,North,360,0.0,2.0,99,0.00,,,0.00,Rainwise IP-100,2013-09-17 11:46:00,
2013-09-17 07:51:00,35.7,36.0,29.98,North,360,0.0,0.0,99,0.00,,,0.00,Rainwise IP-100,2013-09-17 11:51:00,
2013-09-17 07:56:00,35.9,36.0,29.97,North,360,0.0,1.0,99,0.00,,,0.00,Rainwise IP-100,2013-09-17 11:56:00,
2013-09-17 08:01:00,36.2,36.0,29.98,North,360,0.0,1.0,99,0.00,,,0.00,Rainwise IP-100,2013-09-17 12:01:00,
2013-09-17 08:06:00,36.5,37.0,29.98,WNW,292,0.0,2.0,99,0.00,,,0.00,Rainwise IP-100,2013-09-17 12:06:00,
2013-09-17 08:11:00,36.7,37.0,29.98,West,270,0.0,1.0,99,0.00,,,0.00,Rainwise IP-100,2013-09-17 12:11:00,
2013-09-17 08:16:00,36.9,37.0,29.98,SW,225,2.6,3.0,99,0.00,,,0.00,Rainwise IP-100,2013-09-17 12:16:00,
2013-09-17 08:21:00,37.0,37.0,29.98,WSW,247,0.0,2.0,99,0.00,,,0.00,Rainwise IP-100,2013-09-17 12:21:00,
2013-09-17 08:26:00,37.4,37.0,29.99,WSW,247,0.0,0.0,99,0.00,,,0.00,Rainwise IP-100,2013-09-17 12:26:00,
2013-09-17 08:31:00,37.9,38.0,29.99,WSW,247,0.0,1.0,99,0.00,,,0.00,Rainwise IP-100,2013-09-17 12:31:00,
2013-09-17 08:36:00,38.3,38.0,29.99,North,360,3.0,3.0,99,0.00,,,0.00,Rainwise IP-100,2013-09-17 12:36:00,
2013-09-17 08:41:00,38.5,39.0,29.99,North,360,0.0,3.0,99,0.00,,,0.00,Rainwise IP-100,2013-09-17 12:41:00,
2013-09-17 08:46:00,38.8,39.0,29.99,North,360,2.1,2.1,99,0.00,,,0.00,Rainwise IP-100,2013-09-17 12:46:00,
2013-09-17 08:51:00,39.5,40.0,29.99,NNE,22,2.1,3.0,99,0.00,,,0.00,Rainwise IP-100,2013-09-17 12:51:00,
2013-09-17 08:56:00,40.2,40.0,30.00,NNE,22,1.9,3.0,99,0.00,,,0.00,Rainwise IP-100,2013-09-17 12:56:00,
2013-09-17 09:02:00,41.1,41.0,30.00,NNE,22,2.1,3.0,99,0.00,,,0.00,Rainwise IP-100,2013-09-17 13:02:00,
2013-09-17 09:07:00,42.4,42.0,30.00,NNE,22,0.0,3.0,99,0.00,,,0.00,Rainwise IP-100,2013-09-17 13:07:00,
2013-09-17 09:12:00,43.9,44.0,30.00,SSE,157,0.0,0.0,99,0.00,,,0.00,Rainwise IP-100,2013-09-17 13:12:00,
2013-09-17 09:17:00,45.4,45.0,30.00,ESE,112,0.0,1.0,99,0.00,,,0.00,Rainwise IP-100,2013-09-17 13:17:00,
2013-09-17 09:22:00,46.9,47.0,30.01,NNE,22,0.0,0.0,99,0.00,,,0.00,Rainwise IP-100,2013-09-17 13:22:00,
2013-09-17 09:27:00,47.2,47.0,30.01,ENE,67,1.6,2.0,99,0.00,,,0.00,Rainwise IP-100,2013-09-17 13:27:00,
2013-09-17 09:32:00,47.4,47.0,30.01,NNE,22,0.0,3.0,99,0.00,,,0.00,Rainwise IP-100,2013-09-17 13:32:00,
2013-09-17 09:37:00,48.1,48.0,30.01,NNE,22,2.1,2.1,99,0.00,,,0.00,Rainwise IP-100,2013-09-17 13:37:00,
2013-09-17 09:42:00,48.9,48.0,30.01,NNW,337,0.0,2.0,97,0.00,,,0.00,Rainwise IP-100,2013-09-17 13:42:00,
2013-09-17 09:47:00,49.8,47.0,30.01,NNE,22,1.9,1.9,93,0.00,,,0.00,Rainwise IP-100,2013-09-17 13:47:00,
2013-09-17 09:52:00,50.5,47.0,30.01,NNE,22,2.1,3.0,89,0.00,,,0.00,Rainwise IP-100,2013-09-17 13:52:00,
2013-09-17 09:57:00,50.7,47.0,30.01,ENE,67,4.0,4.0,86,0.00,,,0.00,Rainwise IP-100,2013-09-17 13:57:00,
2013-09-17 10:02:00,50.0,45.0,30.01,NNE,22,2.6,4.0,82,0.00,,,0.00,Rainwise IP-100,2013-09-17 14:02:00,
2013-09-17 10:07:00,49.6,43.0,30.01,NE,45,2.8,3.0,79,0.00,,,0.00,Rainwise IP-100,2013-09-17 14:07:00,
2013-09-17 10:12:00,49.6,42.0,30.01,ENE,67,2.1,3.0,76,0.00,,,0.00,Rainwise IP-100,2013-09-17 14:12:00,
2013-09-17 10:17:00,49.7,42.0,30.01,East,90,0.0,3.0,74,0.00,,,0.00,Rainwise IP-100,2013-09-17 14:17:00,
2013-09-17 10:23:00,50.3,41.0,30.01,NNE,22,2.8,3.0,73,0.00,,,0.00,Rainwise IP-100,2013-09-17 14:23:00,
2013-09-17 10:28:00,50.9,42.0,30.00,ENE,67,3.3,4.0,71,0.00,,,0.00,Rainwise IP-100,2013-09-17 14:28:00,
2013-09-17 10:33:00,50.8,41.0,30.00,ENE,67,4.4,6.0,70,0.00,,,0.00,Rainwise IP-100,2013-09-17 14:33:00,
2013-09-17 10:38:00,50.3,40.0,30.00,ENE,67,4.4,6.0,69,0.00,,,0.00,Rainwise IP-100,2013-09-17 14:38:00,
2013-09-17 10:43:00,50.7,41.0,30.00,ENE,67,3.0,5.0,69,0.00,,,0.00,Rainwise IP-100,2013-09-17 14:43:00,
2013-09-17 10:48:00,51.0,41.0,30.00,ENE,67,4.4,6.0,68,0.00,,,0.00,Rainwise IP-100,2013-09-17 14:48:00,
2013-09-17 10:53:00,51.3,40.0,30.00,ENE,67,2.8,6.0,67,0.00,,,0.00,Rainwise IP-100,2013-09-17 14:53:00,
2013-09-17 10:58:00,51.9,41.0,30.00,ENE,67,6.3,6.3,67,0.00,,,0.00,Rainwise IP-100,2013-09-17 14:58:00,
2013-09-17 11:03:00,52.2,41.0,30.00,ENE,67,2.3,5.0,66,0.00,,,0.00,Rainwise IP-100,2013-09-17 15:03:00,
2013-09-17 11:08:00,52.3,40.0,30.00,NE,45,1.9,3.0,65,0.00,,,0.00,Rainwise IP-100,2013-09-17 15:08:00,
2013-09-17 11:13:00,53.1,41.0,29.99,West,270,0.0,5.0,64,0.00,,,0.00,Rainwise IP-100,2013-09-17 15:13:00,
2013-09-17 11:18:00,54.3,42.0,29.99,NE,45,0.0,2.0,64,0.00,,,0.00,Rainwise IP-100,2013-09-17 15:18:00,
2013-09-17 11:23:00,55.2,43.0,29.99,ENE,67,2.1,4.0,64,0.00,,,0.00,Rainwise IP-100,2013-09-17 15:23:00,
2013-09-17 11:28:00,55.0,42.0,29.99,NNE,22,4.0,6.0,62,0.00,,,0.00,Rainwise IP-100,2013-09-17 15:28:00,
2013-09-17 11:33:00,55.1,41.0,29.99,ENE,67,2.8,7.0,60,0.00,,,0.00,Rainwise IP-100,2013-09-17 15:33:00,
2013-09-17 11:39:00,55.2,41.0,29.98,NNE,22,5.8,5.8,59,0.00,,,0.00,Rainwise IP-100,2013-09-17 15:39:00,
2013-09-17 11:44:00,55.6,41.0,29.98,NNW,337,2.6,7.0,58,0.00,,,0.00,Rainwise IP-100,2013-09-17 15:44:00,
2013-09-17 11:49:00,56.3,41.0,29.98,SE,135,3.5,4.0,57,0.00,,,0.00,Rainwise IP-100,2013-09-17 15:49:00,
2013-09-17 11:54:00,56.1,41.0,29.98,ENE,67,2.3,4.0,57,0.00,,,0.00,Rainwise IP-100,2013-09-17 15:54:00,
2013-09-17 11:59:00,55.3,40.0,29.98,ENE,67,2.6,5.0,57,0.00,,,0.00,Rainwise IP-100,2013-09-17 15:59:00,
2013-09-17 12:04:00,55.6,41.0,29.97,ENE,67,0.0,3.0,57,0.00,,,0.00,Rainwise IP-100,2013-09-17 16:04:00,
2013-09-17 12:09:00,56.4,41.0,29.98,ESE,112,0.0,5.0,57,0.00,,,0.00,Rainwise IP-100,2013-09-17 16:09:00,
2013-09-17 12:14:00,57.4,42.0,29.97,West,270,2.6,3.0,56,0.00,,,0.00,Rainwise IP-100,2013-09-17 16:14:00,
2013-09-17 12:19:00,58.2,42.0,29.97,SSW,202,2.1,4.0,56,0.00,,,0.00,Rainwise IP-100,2013-09-17 16:19:00,
2013-09-17 12:24:00,58.2,41.0,29.97,South,180,1.2,7.0,54,0.00,,,0.00,Rainwise IP-100,2013-09-17 16:24:00,
2013-09-17 12:29:00,58.3,41.0,29.97,SSE,157,0.0,4.0,53,0.00,,,0.00,Rainwise IP-100,2013-09-17 16:29:00,
2013-09-17 12:34:00,58.4,41.0,29.97,ENE,67,3.0,3.0,54,0.00,,,0.00,Rainwise IP-100,2013-09-17 16:34:00,
2013-09-17 12:39:00,57.4,41.0,29.97,ESE,112,4.0,4.0,54,0.00,,,0.00,Rainwise IP-100,2013-09-17 16:39:00,
2013-09-17 12:44:00,56.6,39.0,29.97,ENE,67,4.7,5.0,53,0.00,,,0.00,Rainwise IP-100,2013-09-17 16:44:00,
2013-09-17 12:49:00,56.4,39.0,29.96,ENE,67,4.7,5.0,53,0.00,,,0.00,Rainwise IP-100,2013-09-17 16:49:00,
2013-09-17 12:55:00,56.4,39.0,29.96,East,90,3.3,5.0,53,0.00,,,0.00,Rainwise IP-100,2013-09-17 16:55:00,
2013-09-17 13:00:00,56.7,39.0,29.95,ENE,67,5.4,5.4,53,0.00,,,0.00,Rainwise IP-100,2013-09-17 17:00:00,
2013-09-17 13:05:00,57.2,40.0,29.95,ENE,67,4.7,4.7,53,0.00,,,0.00,Rainwise IP-100,2013-09-17 17:05:00,
2013-09-17 13:10:00,58.0,41.0,29.95,NNW,337,2.6,5.0,53,0.00,,,0.00,Rainwise IP-100,2013-09-17 17:10:00,
2013-09-17 13:15:00,58.9,41.0,29.95,NNE,22,4.0,6.0,52,0.00,,,0.00,Rainwise IP-100,2013-09-17 17:15:00,
2013-09-17 13:20:00,59.6,41.0,29.95,West,270,0.0,5.0,51,0.00,,,0.00,Rainwise IP-100,2013-09-17 17:20:00,
2013-09-17 13:25:00,59.2,41.0,29.94,ENE,67,3.3,7.0,51,0.00,,,0.00,Rainwise IP-100,2013-09-17 17:25:00,
2013-09-17 13:30:00,58.7,41.0,29.94,NE,45,0.0,5.0,51,0.00,,,0.00,Rainwise IP-100,2013-09-17 17:30:00,
2013-09-17 13:35:00,59.4,41.0,29.94,SE,135,1.6,2.0,51,0.00,,,0.00,Rainwise IP-100,2013-09-17 17:35:00,
2013-09-17 13:40:00,60.3,42.0,29.94,NNW,337,2.1,5.0,51,0.00,,,0.00,Rainwise IP-100,2013-09-17 17:40:00,
2013-09-17 13:45:00,60.7,42.0,29.94,ENE,67,1.9,5.0,50,0.00,,,0.00,Rainwise IP-100,2013-09-17 17:45:00,
2013-09-17 13:51:00,60.1,40.0,29.94,East,90,1.2,4.0,49,0.00,,,0.00,Rainwise IP-100,2013-09-17 17:51:00,
2013-09-17 13:56:00,60.0,40.0,29.93,ENE,67,5.1,5.1,49,0.00,,,0.00,Rainwise IP-100,2013-09-17 17:56:00,
2013-09-17 14:01:00,60.3,40.0,29.93,NNE,22,0.0,5.0,48,0.00,,,0.00,Rainwise IP-100,2013-09-17 18:01:00,
2013-09-17 14:06:00,60.0,40.0,29.93,ENE,67,4.4,5.0,48,0.00,,,0.00,Rainwise IP-100,2013-09-17 18:06:00,
2013-09-17 14:11:00,59.9,40.0,29.93,ENE,67,1.9,5.0,48,0.00,,,0.00,Rainwise IP-100,2013-09-17 18:11:00,
2013-09-17 14:16:00,60.8,40.0,29.92,NE,45,0.0,2.0,48,0.00,,,0.00,Rainwise IP-100,2013-09-17 18:16:00,
2013-09-17 14:21:00,61.2,41.0,29.92,ENE,67,3.3,5.0,48,0.00,,,0.00,Rainwise IP-100,2013-09-17 18:21:00,
2013-09-17 14:26:00,61.3,40.0,29.92,West,270,0.0,3.0,47,0.00,,,0.00,Rainwise IP-100,2013-09-17 18:26:00,
2013-09-17 14:31:00,61.5,41.0,29.92,SE,135,1.6,4.0,47,0.00,,,0.00,Rainwise IP-100,2013-09-17 18:31:00,
2013-09-17 14:36:00,61.2,40.0,29.91,East,90,1.4,4.0,47,0.00,,,0.00,Rainwise IP-100,2013-09-17 18:36:00,
2013-09-17 14:41:00,61.5,41.0,29.91,ENE,67,2.8,2.8,47,0.00,,,0.00,Rainwise IP-100,2013-09-17 18:41:00,
2013-09-17 14:46:00,61.4,41.0,29.91,ENE,67,0.0,4.0,47,0.00,,,0.00,Rainwise IP-100,2013-09-17 18:46:00,
2013-09-17 14:51:00,62.3,41.0,29.90,WSW,247,0.0,3.0,47,0.00,,,0.00,Rainwise IP-100,2013-09-17 18:51:00,
2013-09-17 14:56:00,63.5,43.0,29.90,WSW,247,2.3,3.0,47,0.00,,,0.00,Rainwise IP-100,2013-09-17 18:56:00,
2013-09-17 15:01:00,64.1,43.0,29.90,SSE,157,0.0,4.0,46,0.00,,,0.00,Rainwise IP-100,2013-09-17 19:01:00,
2013-09-17 15:07:00,64.4,43.0,29.90,SE,135,0.0,2.0,46,0.00,,,0.00,Rainwise IP-100,2013-09-17 19:07:00,
2013-09-17 15:12:00,64.9,43.0,29.90,WSW,247,0.0,3.0,45,0.00,,,0.00,Rainwise IP-100,2013-09-17 19:12:00,
2013-09-17 15:17:00,65.9,44.0,29.90,SSW,202,0.0,2.0,45,0.00,,,0.00,Rainwise IP-100,2013-09-17 19:17:00,
2013-09-17 15:22:00,66.0,43.0,29.89,WSW,247,0.0,2.0,44,0.00,,,0.00,Rainwise IP-100,2013-09-17 19:22:00,
2013-09-17 15:27:00,66.5,44.0,29.89,WSW,247,0.0,0.0,44,0.00,,,0.00,Rainwise IP-100,2013-09-17 19:27:00,
2013-09-17 15:32:00,67.6,45.0,29.89,SSW,202,2.6,3.0,44,0.00,,,0.00,Rainwise IP-100,2013-09-17 19:32:00,
2013-09-17 15:37:00,67.9,45.0,29.89,SSW,202,0.0,3.0,44,0.00,,,0.00,Rainwise IP-100,2013-09-17 19:37:00,
2013-09-17 15:42:00,68.1,45.0,29.89,SE,135,0.0,2.0,44,0.00,,,0.00,Rainwise IP-100,2013-09-17 19:42:00,
2013-09-17 15:47:00,68.1,45.0,29.89,SSW,202,1.2,2.0,44,0.00,,,0.00,Rainwise IP-100,2013-09-17 19:47:00,
2013-09-17 15:52:00,68.2,45.0,29.88,WSW,247,2.3,2.3,44,0.00,,,0.00,Rainwise IP-100,2013-09-17 19:52:00,
2013-09-17 15:57:00,68.2,45.0,29.88,West,270,0.0,3.0,44,0.00,,,0.00,Rainwise IP-100,2013-09-17 19:57:00,
2013-09-17 16:02:00,68.0,45.0,29.88,SSW,202,4.7,7.0,43,0.00,,,0.00,Rainwise IP-100,2013-09-17 20:02:00,
2013-09-17 16:07:00,66.1,43.0,29.88,SW,225,5.6,7.0,43,0.00,,,0.00,Rainwise IP-100,2013-09-17 20:07:00,
2013-09-17 16:12:00,64.8,42.0,29.88,ESE,112,2.8,6.0,44,0.00,,,0.00,Rainwise IP-100,2013-09-17 20:12:00,
2013-09-17 16:17:00,65.2,43.0,29.88,SSW,202,2.6,3.0,45,0.00,,,0.00,Rainwise IP-100,2013-09-17 20:17:00,
2013-09-17 16:23:00,65.2,43.0,29.88,SW,225,3.0,6.0,45,0.00,,,0.00,Rainwise IP-100,2013-09-17 20:23:00,
2013-09-17 16:28:00,64.5,42.0,29.88,SW,225,6.8,6.8,45,0.00,,,0.00,Rainwise IP-100,2013-09-17 20:28:00,
2013-09-17 16:33:00,64.3,42.0,29.88,South,180,3.7,6.0,45,0.00,,,0.00,Rainwise IP-100,2013-09-17 20:33:00,
2013-09-17 16:38:00,64.8,42.0,29.87,South,180,3.3,5.0,45,0.00,,,0.00,Rainwise IP-100,2013-09-17 20:38:00,
2013-09-17 16:43:00,65.6,43.0,29.88,South,180,0.0,3.0,45,0.00,,,0.00,Rainwise IP-100,2013-09-17 20:43:00,
2013-09-17 16:48:00,65.5,43.0,29.88,SW,225,0.0,5.0,45,0.00,,,0.00,Rainwise IP-100,2013-09-17 20:48:00,
2013-09-17 16:53:00,65.2,42.0,29.88,SSE,157,2.3,5.0,44,0.00,,,0.00,Rainwise IP-100,2013-09-17 20:53:00,
2013-09-17 16:58:00,65.7,42.0,29.87,South,180,0.0,2.0,43,0.00,,,0.00,Rainwise IP-100,2013-09-17 20:58:00,
2013-09-17 17:03:00,66.1,43.0,29.87,NNE,22,1.9,4.0,43,0.00,,,0.00,Rainwise IP-100,2013-09-17 21:03:00,
2013-09-17 17:08:00,66.4,43.0,29.87,SW,225,1.6,3.0,43,0.00,,,0.00,Rainwise IP-100,2013-09-17 21:08:00,
2013-09-17 17:13:00,66.2,43.0,29.87,SSE,157,2.6,3.0,43,0.00,,,0.00,Rainwise IP-100,2013-09-17 21:13:00,
2013-09-17 17:18:00,65.8,42.0,29.87,SSW,202,0.0,3.0,43,0.00,,,0.00,Rainwise IP-100,2013-09-17 21:18:00,
2013-09-17 17:23:00,65.2,42.0,29.87,SW,225,3.3,3.3,43,0.00,,,0.00,Rainwise IP-100,2013-09-17 21:23:00,
2013-09-17 17:28:00,63.8,41.0,29.87,SW,225,3.7,5.0,44,0.00,,,0.00,Rainwise IP-100,2013-09-17 21:28:00,
2013-09-17 17:33:00,62.5,41.0,29.87,WNW,292,2.3,4.0,46,0.00,,,0.00,Rainwise IP-100,2013-09-17 21:33:00,
2013-09-17 17:39:00,61.6,41.0,29.87,WSW,247,2.6,3.0,48,0.00,,,0.00,Rainwise IP-100,2013-09-17 21:39:00,
2013-09-17 17:44:00,60.9,41.0,29.87,WSW,247,1.4,4.0,49,0.00,,,0.00,Rainwise IP-100,2013-09-17 21:44:00,
2013-09-17 17:49:00,60.4,42.0,29.87,WSW,247,0.0,2.0,50,0.00,,,0.00,Rainwise IP-100,2013-09-17 21:49:00,
2013-09-17 17:54:00,60.1,42.0,29.87,WSW,247,0.0,1.0,51,0.00,,,0.00,Rainwise IP-100,2013-09-17 21:54:00,
2013-09-17 17:59:00,59.8,42.0,29.88,NNW,337,0.0,1.0,52,0.00,,,0.00,Rainwise IP-100,2013-09-17 21:59:00,
2013-09-17 18:04:00,59.4,43.0,29.87,SW,225,0.0,1.0,54,0.00,,,0.00,Rainwise IP-100,2013-09-17 22:04:00,
2013-09-17 18:09:00,58.9,43.0,29.87,SW,225,0.0,1.0,55,0.00,,,0.00,Rainwise IP-100,2013-09-17 22:09:00,
2013-09-17 18:14:00,58.3,43.0,29.87,SW,225,0.0,1.0,57,0.00,,,0.00,Rainwise IP-100,2013-09-17 22:14:00,
2013-09-17 18:19:00,57.6,43.0,29.87,SW,225,0.0,1.0,59,0.00,,,0.00,Rainwise IP-100,2013-09-17 22:19:00,
2013-09-17 18:24:00,57.2,43.0,29.87,WNW,292,1.9,2.0,60,0.00,,,0.00,Rainwise IP-100,2013-09-17 22:24:00,
2013-09-17 18:29:00,57.0,43.0,29.87,WNW,292,1.9,3.0,60,0.00,,,0.00,Rainwise IP-100,2013-09-17 22:29:00,
2013-09-17 18:34:00,56.8,43.0,29.87,WNW,292,0.0,2.0,60,0.00,,,0.00,Rainwise IP-100,2013-09-17 22:34:00,
2013-09-17 18:39:00,56.3,43.0,29.87,WNW,292,1.4,1.4,63,0.00,,,0.00,Rainwise IP-100,2013-09-17 22:39:00,
2013-09-17 18:44:00,55.4,44.0,29.87,WSW,247,1.4,2.0,66,0.00,,,0.00,Rainwise IP-100,2013-09-17 22:44:00,
2013-09-17 18:49:00,54.6,44.0,29.87,WSW,247,1.2,1.2,68,0.00,,,0.00,Rainwise IP-100,2013-09-17 22:49:00,
2013-09-17 18:55:00,54.1,44.0,29.87,WSW,247,0.0,1.0,70,0.00,,,0.00,Rainwise IP-100,2013-09-17 22:55:00,
2013-09-17 19:00:00,53.6,45.0,29.87,WSW,247,0.0,0.0,72,0.00,,,0.00,Rainwise IP-100,2013-09-17 23:00:00,
2013-09-17 19:05:00,53.1,44.0,29.87,WSW,247,0.0,0.0,73,0.00,,,0.00,Rainwise IP-100,2013-09-17 23:05:00,
2013-09-17 19:10:00,52.6,45.0,29.87,WSW,247,0.0,0.0,74,0.00,,,0.00,Rainwise IP-100,2013-09-17 23:10:00,
2013-09-17 19:15:00,52.2,44.0,29.86,WSW,247,0.0,1.0,74,0.00,,,0.00,Rainwise IP-100,2013-09-17 23:15:00,
2013-09-17 19:20:00,51.7,45.0,29.87,WSW,247,0.0,1.0,76,0.00,,,0.00,Rainwise IP-100,2013-09-17 23:20:00,
2013-09-17 19:25:00,51.4,44.0,29.87,WSW,247,0.0,0.0,77,0.00,,,0.00,Rainwise IP-100,2013-09-17 23:25:00,
2013-09-17 19:30:00,50.9,45.0,29.87,WSW,247,0.0,0.0,78,0.00,,,0.00,Rainwise IP-100,2013-09-17 23:30:00,
2013-09-17 19:35:00,50.7,44.0,29.87,North,360,0.0,2.0,79,0.00,,,0.00,Rainwise IP-100,2013-09-17 23:35:00,
2013-09-17 19:40:00,50.7,45.0,29.87,NNE,22,1.6,3.0,80,0.00,,,0.00,Rainwise IP-100,2013-09-17 23:40:00,
2013-09-17 19:45:00,50.5,45.0,29.87,NNE,22,0.0,1.0,80,0.00,,,0.00,Rainwise IP-100,2013-09-17 23:45:00,
2013-09-17 19:50:00,50.1,44.0,29.87,South,180,0.0,2.0,80,0.00,,,0.00,Rainwise IP-100,2013-09-17 23:50:00,
2013-09-17 19:55:00,49.8,44.0,29.87,WSW,247,0.0,1.0,81,0.00,,,0.00,Rainwise IP-100,2013-09-17 23:55:00,
2013-09-17 20:00:00,49.6,45.0,29.88,WSW,247,0.0,2.0,82,0.00,,,0.00,Rainwise IP-100,2013-09-18 00:00:00,
2013-09-17 20:06:00,49.4,44.0,29.88,WNW,292,0.0,0.0,82,0.00,,,0.00,Rainwise IP-100,2013-09-18 00:06:00,
2013-09-17 20:11:00,49.0,44.0,29.88,SW,225,2.1,2.1,83,0.00,,,0.00,Rainwise IP-100,2013-09-18 00:11:00,
2013-09-17 20:16:00,48.6,44.0,29.88,SW,225,0.0,2.0,84,0.00,,,0.00,Rainwise IP-100,2013-09-18 00:16:00,
2013-09-17 20:21:00,48.4,44.0,29.88,SW,225,0.0,1.0,85,0.00,,,0.00,Rainwise IP-100,2013-09-18 00:21:00,
2013-09-17 20:26:00,48.2,44.0,29.89,SW,225,0.0,1.0,85,0.00,,,0.00,Rainwise IP-100,2013-09-18 00:26:00,
2013-09-17 20:31:00,48.2,44.0,29.89,SW,225,2.1,2.1,85,0.00,,,0.00,Rainwise IP-100,2013-09-18 00:31:00,
2013-09-17 20:36:00,48.1,44.0,29.89,SW,225,0.0,2.0,85,0.00,,,0.00,Rainwise IP-100,2013-09-18 00:36:00,
2013-09-17 20:41:00,47.9,44.0,29.89,SW,225,0.0,0.0,86,0.00,,,0.00,Rainwise IP-100,2013-09-18 00:41:00,
2013-09-17 20:46:00,47.7,44.0,29.89,SW,225,0.0,0.0,87,0.00,,,0.00,Rainwise IP-100,2013-09-18 00:46:00,
2013-09-17 20:51:00,47.4,44.0,29.89,SW,225,2.6,2.6,87,0.00,,,0.00,Rainwise IP-100,2013-09-18 00:51:00,
2013-09-17 20:56:00,47.0,43.0,29.89,SW,225,0.0,3.0,88,0.00,,,0.00,Rainwise IP-100,2013-09-18 00:56:00,
2013-09-17 21:01:00,46.9,43.0,29.89,SW,225,1.9,2.0,89,0.00,,,0.00,Rainwise IP-100,2013-09-18 01:01:00,
2013-09-17 21:07:00,46.9,44.0,29.89,SW,225,0.0,2.0,90,0.00,,,0.00,Rainwise IP-100,2013-09-18 01:07:00,
2013-09-17 21:12:00,46.8,44.0,29.88,SW,225,0.0,0.0,90,0.00,,,0.00,Rainwise IP-100,2013-09-18 01:12:00,
2013-09-17 21:17:00,46.6,44.0,29.88,SW,225,0.0,0.0,91,0.00,,,0.00,Rainwise IP-100,2013-09-18 01:17:00,
2013-09-17 21:22:00,46.3,43.0,29.88,SW,225,0.0,0.0,91,0.00,,,0.00,Rainwise IP-100,2013-09-18 01:22:00,
2013-09-17 21:27:00,45.7,44.0,29.88,NNW,337,0.0,2.0,92,0.00,,,0.00,Rainwise IP-100,2013-09-18 01:27:00,
2013-09-17 21:32:00,45.6,44.0,29.89,NNW,337,0.0,2.0,93,0.00,,,0.00,Rainwise IP-100,2013-09-18 01:32:00,
2013-09-17 21:37:00,45.6,44.0,29.89,NNW,337,1.4,1.4,93,0.00,,,0.00,Rainwise IP-100,2013-09-18 01:37:00,
2013-09-17 21:42:00,45.5,44.0,29.89,WNW,292,0.0,2.0,92,0.00,,,0.00,Rainwise IP-100,2013-09-18 01:42:00,
2013-09-17 21:47:00,45.3,43.0,29.89,WNW,292,0.0,0.0,92,0.00,,,0.00,Rainwise IP-100,2013-09-18 01:47:00,
2013-09-17 21:52:00,44.8,43.0,29.89,WNW,292,0.0,0.0,92,0.00,,,0.00,Rainwise IP-100,2013-09-18 01:52:00,
2013-09-17 21:57:00,44.6,43.0,29.89,WNW,292,0.0,1.0,93,0.00,,,0.00,Rainwise IP-100,2013-09-18 01:57:00,
2013-09-17 22:02:00,44.7,43.0,29.89,NNW,337,1.9,2.0,93,0.00,,,0.00,Rainwise IP-100,2013-09-18 02:02:00,
2013-09-17 22:07:00,44.8,43.0,29.89,NNW,337,0.0,2.0,93,0.00,,,0.00,Rainwise IP-100,2013-09-18 02:07:00,
2013-09-17 22:12:00,44.7,43.0,29.89,WNW,292,0.0,0.0,93,0.00,,,0.00,Rainwise IP-100,2013-09-18 02:12:00,
2013-09-17 22:17:00,44.6,43.0,29.89,NNW,337,2.3,3.0,93,0.00,,,0.00,Rainwise IP-100,2013-09-18 02:17:00,
2013-09-17 22:23:00,44.4,42.0,29.88,North,360,1.4,3.0,93,0.00,,,0.00,Rainwise IP-100,2013-09-18 02:23:00,
2013-09-17 22:28:00,44.2,42.0,29.88,North,360,2.1,3.0,93,0.00,,,0.00,Rainwise IP-100,2013-09-18 02:28:00,
2013-09-17 22:33:00,44.0,42.0,29.89,NNW,337,0.0,3.0,94,0.00,,,0.00,Rainwise IP-100,2013-09-18 02:33:00,
2013-09-17 22:38:00,43.9,42.0,29.88,NNW,337,0.0,1.0,94,0.00,,,0.00,Rainwise IP-100,2013-09-18 02:38:00,
2013-09-17 22:43:00,43.9,42.0,29.88,NNW,337,0.0,3.0,94,0.00,,,0.00,Rainwise IP-100,2013-09-18 02:43:00,
2013-09-17 22:48:00,43.8,42.0,29.88,ENE,67,0.0,1.0,94,0.00,,,0.00,Rainwise IP-100,2013-09-18 02:48:00,
2013-09-17 22:53:00,43.7,42.0,29.88,ENE,67,0.0,0.0,94,0.00,,,0.00,Rainwise IP-100,2013-09-18 02:53:00,
2013-09-17 22:58:00,43.6,43.0,29.89,NNW,337,0.0,1.0,95,0.00,,,0.00,Rainwise IP-100,2013-09-18 02:58:00,
2013-09-17 23:03:00,43.4,42.0,29.88,NNW,337,0.0,1.0,95,0.00,,,0.00,Rainwise IP-100,2013-09-18 03:03:00,
2013-09-17 23:08:00,43.2,42.0,29.89,NNW,337,0.0,0.0,95,0.00,,,0.00,Rainwise IP-100,2013-09-18 03:08:00,
2013-09-17 23:13:00,43.3,42.0,29.89,NNW,337,0.0,0.0,95,0.00,,,0.00,Rainwise IP-100,2013-09-18 03:13:00,
2013-09-17 23:18:00,43.3,42.0,29.89,NNW,337,0.0,1.0,95,0.00,,,0.00,Rainwise IP-100,2013-09-18 03:18:00,
2013-09-17 23:23:00,43.2,42.0,29.88,NNW,337,0.0,1.0,95,0.00,,,0.00,Rainwise IP-100,2013-09-18 03:23:00,
2013-09-17 23:28:00,43.0,42.0,29.88,NNW,337,0.0,0.0,95,0.00,,,0.00,Rainwise IP-100,2013-09-18 03:28:00,
2013-09-17 23:33:00,42.7,42.0,29.88,NNW,337,0.0,0.0,96,0.00,,,0.00,Rainwise IP-100,2013-09-18 03:33:00,
2013-09-17 23:39:00,42.5,42.0,29.88,NNW,337,0.0,0.0,96,0.00,,,0.00,Rainwise IP-100,2013-09-18 03:39:00,
2013-09-17 23:44:00,42.3,41.0,29.88,NNW,337,1.4,1.4,96,0.00,,,0.00,Rainwise IP-100,2013-09-18 03:44:00,
2013-09-17 23:49:00,42.2,41.0,29.88,NNW,337,0.0,1.0,96,0.00,,,0.00,Rainwise IP-100,2013-09-18 03:49:00,
2013-09-17 23:54:00,42.1,41.0,29.88,NNW,337,0.0,0.0,96,0.00,,,0.00,Rainwise IP-100,2013-09-18 03:54:00,
2013-09-17 23:59:00,42.0,41.0,29.88,NNW,337,1.4,3.0,97,0.00,,,0.00,Rainwise IP-100,2013-09-18 03:59:00,